Time;durP1;ratioP1;P1;durP2;ratioP2;P2;SDS_P1;SDS_P2;PMS_P1;PMS_P2;Temp;Humidity;BMP_temperature;BMP_pressure;BME280_temperature;BME280_humidity;BME280_pressure;Samples;Min_cycle;Max_cycle;Signal;HPM_P1;HPM_P2
2022/08/29 00:00:01;;;;;;;2.77;1.83;;;20.80;48.00;;;;;;5055294;28;21113;-69
2022/08/29 00:02:29;;;;;;;4.97;1.90;;;20.70;47.90;;;;;;5055145;28;20504;-69
2022/08/29 00:04:56;;;;;;;3.00;1.73;;;20.70;48.10;;;;;;5055439;28;20481;-68
2022/08/29 00:07:23;;;;;;;2.17;1.90;;;20.60;48.20;;;;;;5055570;28;20461;-69
2022/08/29 00:09:50;;;;;;;2.53;1.50;;;20.60;48.80;;;;;;5055205;28;20817;-69
2022/08/29 00:12:17;;;;;;;3.80;1.53;;;20.60;48.50;;;;;;5055309;28;20476;-69
2022/08/29 00:14:44;;;;;;;3.93;1.77;;;20.50;48.50;;;;;;5055474;28;20512;-68
2022/08/29 00:17:11;;;;;;;5.83;2.30;;;20.50;48.60;;;;;;5055131;28;20449;-68
2022/08/29 00:19:39;;;;;;;2.50;1.67;;;20.50;48.70;;;;;;5055463;28;20454;-69
2022/08/29 00:22:05;;;;;;;1.90;1.27;;;20.40;48.80;;;;;;5054911;28;21011;-69
2022/08/29 00:24:33;;;;;;;2.33;1.67;;;20.40;48.90;;;;;;5055095;28;20481;-68
2022/08/29 00:27:00;;;;;;;1.60;1.33;;;20.40;49.10;;;;;;5055212;28;20449;-68
2022/08/29 00:29:28;;;;;;;2.60;1.50;;;20.30;49.10;;;;;;5055162;28;20519;-68
2022/08/29 00:31:54;;;;;;;2.90;1.50;;;20.30;49.30;;;;;;5055042;28;20449;-69
2022/08/29 00:34:21;;;;;;;1.77;1.47;;;20.20;49.40;;;;;;5055094;28;20461;-68
2022/08/29 00:36:50;;;;;;;2.10;1.60;;;20.20;49.50;;;;;;5055071;28;20456;-68
2022/08/29 00:39:17;;;;;;;2.17;1.50;;;20.20;50.20;;;;;;5054966;28;20479;-68
2022/08/29 00:41:44;;;;;;;2.57;1.20;;;20.10;49.70;;;;;;5055180;28;20453;-69
2022/08/29 00:44:11;;;;;;;1.70;1.60;;;20.10;49.90;;;;;;5054760;28;20478;-68
2022/08/29 00:46:47;;;;;;;4.53;1.80;;;20.00;49.90;;;;;;5054498;28;20797;-69
2022/08/29 00:49:29;;;;;;;2.23;1.30;;;20.00;50.00;;;;;;5054401;28;20441;-69
2022/08/29 00:51:59;;;;;;;2.47;1.73;;;20.00;50.10;;;;;;5054589;28;20445;-69
2022/08/29 00:54:27;;;;;;;3.77;1.40;;;19.90;50.30;;;;;;5054554;28;20450;-68
2022/08/29 00:56:54;;;;;;;2.80;1.30;;;19.90;50.30;;;;;;5054586;28;20458;-68
2022/08/29 00:59:24;;;;;;;1.80;1.20;;;19.80;50.30;;;;;;5054339;28;20959;-68
2022/08/29 01:01:51;;;;;;;2.40;1.47;;;19.70;50.40;;;;;;5054425;28;20449;-69
2022/08/29 01:04:18;;;;;;;5.00;1.90;;;19.60;50.40;;;;;;5054411;28;20553;-68
2022/08/29 01:06:45;;;;;;;3.17;1.80;;;19.60;50.50;;;;;;5054012;28;20978;-68
2022/08/29 01:09:14;;;;;;;2.47;1.20;;;19.60;50.60;;;;;;5054465;28;20866;-68
2022/08/29 01:14:27;;;;;;;2.30;1.53;;;19.40;50.60;;;;;;5054531;28;20406;-68
2022/08/29 01:16:57;;;;;;;3.30;1.40;;;19.40;50.90;;;;;;5054022;28;20453;-68
2022/08/29 01:19:37;;;;;;;2.90;1.53;;;19.30;51.00;;;;;;5054322;28;20454;-68
2022/08/29 01:22:17;;;;;;;3.47;1.53;;;19.20;51.00;;;;;;5054149;28;20527;-68
2022/08/29 01:24:49;;;;;;;2.33;1.43;;;19.20;51.20;;;;;;5053796;28;20487;-68
2022/08/29 01:27:17;;;;;;;4.60;1.87;;;19.20;51.20;;;;;;5054354;28;20430;-68
2022/08/29 01:29:44;;;;;;;4.60;1.40;;;19.10;51.30;;;;;;5053948;28;20546;-68
2022/08/29 01:32:12;;;;;;;2.23;1.60;;;19.00;51.30;;;;;;5053933;28;20474;-68
2022/08/29 01:34:40;;;;;;;1.53;1.40;;;19.00;51.50;;;;;;5053947;28;20913;-68
2022/08/29 01:37:09;;;;;;;2.60;2.13;;;19.00;51.60;;;;;;5054015;28;20957;-68
2022/08/29 01:39:39;;;;;;;9.03;1.90;;;18.90;51.70;;;;;;5053802;28;20485;-68
2022/08/29 01:42:10;;;;;;;5.97;2.03;;;18.80;51.70;;;;;;5053669;28;20473;-69
2022/08/29 01:44:39;;;;;;;4.23;2.00;;;18.80;51.80;;;;;;5053248;28;20510;-68
2022/08/29 01:47:08;;;;;;;5.23;1.57;;;18.70;51.80;;;;;;5053733;28;20457;-68
2022/08/29 01:49:37;;;;;;;2.67;1.67;;;18.70;51.90;;;;;;5053598;28;20457;-68
2022/08/29 01:52:06;;;;;;;3.27;1.37;;;18.60;51.80;;;;;;5053463;28;20470;-68
2022/08/29 01:54:33;;;;;;;2.30;1.63;;;18.60;52.00;;;;;;5053304;28;21009;-68
2022/08/29 01:57:00;;;;;;;2.47;1.80;;;18.50;52.10;;;;;;5053911;28;20449;-68
2022/08/29 01:59:30;;;;;;;2.47;1.67;;;18.40;51.90;;;;;;5053582;28;20481;-68
2022/08/29 02:02:04;;;;;;;1.93;1.60;;;18.40;52.20;;;;;;5053734;28;20433;-68
2022/08/29 02:04:31;;;;;;;3.70;2.17;;;18.30;52.30;;;;;;5053241;28;20437;-68
2022/08/29 02:06:57;;;;;;;6.10;1.73;;;18.30;52.40;;;;;;5053456;28;20455;-68
2022/08/29 02:09:25;;;;;;;3.07;1.63;;;18.20;52.50;;;;;;5053146;28;20968;-68
2022/08/29 02:11:53;;;;;;;4.10;2.03;;;18.20;52.60;;;;;;5053351;28;20449;-68
2022/08/29 02:14:20;;;;;;;3.07;1.47;;;18.20;52.90;;;;;;5053357;28;20508;-68
2022/08/29 02:16:49;;;;;;;3.30;1.80;;;18.10;53.00;;;;;;5053112;28;20941;-68
2022/08/29 02:19:16;;;;;;;3.50;2.30;;;18.00;53.20;;;;;;5053302;28;20452;-68
2022/08/29 02:21:43;;;;;;;6.20;1.97;;;18.00;53.50;;;;;;5053319;28;20626;-68
2022/08/29 02:24:10;;;;;;;3.00;1.40;;;17.90;53.70;;;;;;5053083;28;20487;-68
2022/08/29 02:26:37;;;;;;;2.97;1.87;;;17.80;53.80;;;;;;5053124;28;20445;-68
2022/08/29 02:29:04;;;;;;;3.10;1.80;;;17.80;53.90;;;;;;5053138;28;20447;-68
2022/08/29 02:31:31;;;;;;;2.20;1.73;;;17.70;54.00;;;;;;5053125;28;20441;-68
2022/08/29 02:33:59;;;;;;;3.67;1.80;;;17.70;54.00;;;;;;5053143;28;20465;-68
2022/08/29 02:36:26;;;;;;;2.30;1.80;;;17.60;53.90;;;;;;5053134;28;20493;-68
2022/08/29 02:38:53;;;;;;;2.30;1.77;;;17.60;54.00;;;;;;5053015;28;20638;-68
2022/08/29 02:41:20;;;;;;;3.13;1.70;;;17.60;53.90;;;;;;5052968;28;20483;-68
2022/08/29 02:43:47;;;;;;;4.23;2.03;;;17.60;54.00;;;;;;5052756;28;20487;-68
2022/08/29 02:46:16;;;;;;;6.10;2.23;;;17.60;54.20;;;;;;5052973;28;20506;-68
2022/08/29 02:48:43;;;;;;;3.17;1.83;;;17.60;54.30;;;;;;5052663;28;20942;-68
2022/08/29 02:51:18;;;;;;;4.40;1.73;;;17.60;54.30;;;;;;5053039;28;20514;-68
2022/08/29 02:53:45;;;;;;;2.80;1.60;;;17.60;54.50;;;;;;5053043;28;20472;-68
2022/08/29 02:56:12;;;;;;;4.63;2.40;;;17.60;54.60;;;;;;5052886;28;20488;-68
2022/08/29 02:58:39;;;;;;;2.10;1.90;;;17.60;54.80;;;;;;5056511;28;20457;-68
2022/08/29 03:01:06;;;;;;;4.27;2.10;;;17.60;54.90;;;;;;5056793;28;20453;-68
2022/08/29 03:03:34;;;;;;;2.70;1.83;;;17.60;55.00;;;;;;5056760;28;20610;-68
2022/08/29 03:06:01;;;;;;;2.43;2.20;;;17.60;55.10;;;;;;5056708;28;20798;-68
2022/08/29 03:08:29;;;;;;;3.83;2.23;;;17.60;55.30;;;;;;5056631;28;20449;-68
2022/08/29 03:10:56;;;;;;;2.47;2.07;;;17.60;55.30;;;;;;5056515;28;20456;-68
2022/08/29 03:13:22;;;;;;;2.07;1.60;;;17.60;55.50;;;;;;5056703;28;20475;-68
2022/08/29 03:15:49;;;;;;;4.10;2.07;;;17.60;56.00;;;;;;5056398;28;20490;-68
2022/08/29 03:18:17;;;;;;;3.17;1.70;;;17.70;55.90;;;;;;5056168;28;20456;-68
2022/08/29 03:20:44;;;;;;;2.00;1.77;;;17.70;56.10;;;;;;5056595;28;20456;-68
2022/08/29 03:23:11;;;;;;;3.80;2.50;;;17.70;56.30;;;;;;5056266;28;20575;-68
2022/08/29 03:25:39;;;;;;;3.17;1.90;;;17.70;56.40;;;;;;5056453;28;20478;-68
2022/08/29 03:28:07;;;;;;;2.43;1.97;;;17.70;56.50;;;;;;5056182;28;20449;-68
2022/08/29 03:30:34;;;;;;;3.03;1.97;;;17.70;56.60;;;;;;5056175;28;20872;-68
2022/08/29 03:33:01;;;;;;;3.13;2.13;;;17.70;56.70;;;;;;5056151;28;20464;-68
2022/08/29 03:35:28;;;;;;;2.87;1.67;;;17.70;56.70;;;;;;5056180;28;20501;-68
2022/08/29 03:37:55;;;;;;;4.93;2.50;;;17.70;56.80;;;;;;5056067;28;20453;-68
2022/08/29 03:40:23;;;;;;;4.23;2.33;;;17.80;57.00;;;;;;5056008;28;20440;-68
2022/08/29 03:42:51;;;;;;;3.77;2.13;;;17.80;57.30;;;;;;5055921;28;20479;-68
2022/08/29 03:45:20;;;;;;;4.13;2.07;;;17.70;57.30;;;;;;5056242;28;20452;-68
2022/08/29 03:47:47;;;;;;;4.43;2.37;;;17.70;57.30;;;;;;5056694;28;20538;-68
2022/08/29 03:50:18;;;;;;;2.60;2.30;;;17.70;57.30;;;;;;5055472;28;20461;-68
2022/08/29 03:52:45;;;;;;;3.63;2.00;;;17.70;57.30;;;;;;5055942;28;20476;-68
2022/08/29 03:55:14;;;;;;;8.63;2.53;;;17.70;57.40;;;;;;5055589;28;20488;-68
2022/08/29 03:57:41;;;;;;;3.93;2.10;;;17.70;57.30;;;;;;5055700;28;20459;-68
2022/08/29 04:00:15;;;;;;;5.17;2.00;;;17.70;57.40;;;;;;5055693;28;20453;-68
2022/08/29 04:02:43;;;;;;;4.10;2.00;;;17.60;57.30;;;;;;5055750;28;20535;-68
2022/08/29 04:05:11;;;;;;;4.27;2.00;;;17.60;57.40;;;;;;5055517;28;20504;-68
2022/08/29 04:07:40;;;;;;;4.17;2.40;;;17.60;57.40;;;;;;5055140;28;20456;-68
2022/08/29 04:10:09;;;;;;;4.50;2.17;;;17.50;57.60;;;;;;5055484;28;20449;-68
2022/08/29 04:12:35;;;;;;;5.37;1.93;;;17.50;57.70;;;;;;5055289;28;20542;-68
2022/08/29 04:15:02;;;;;;;3.53;2.30;;;17.40;57.90;;;;;;5055522;28;20552;-68
2022/08/29 04:17:31;;;;;;;2.87;2.20;;;17.30;58.00;;;;;;5055310;28;20554;-68
2022/08/29 04:19:58;;;;;;;5.10;2.50;;;17.30;58.20;;;;;;5055366;28;20456;-68
2022/08/29 04:22:25;;;;;;;7.27;2.83;;;17.20;58.20;;;;;;5055340;28;20490;-68
2022/08/29 04:24:51;;;;;;;3.43;2.30;;;17.20;58.30;;;;;;5054996;28;20522;-68
2022/08/29 04:27:18;;;;;;;5.03;2.23;;;17.10;58.40;;;;;;5055208;28;20500;-68
2022/08/29 04:29:47;;;;;;;4.47;2.47;;;17.00;58.40;;;;;;5055392;28;20444;-68
2022/08/29 04:32:14;;;;;;;5.10;2.57;;;17.00;59.10;;;;;;5054948;28;20484;-67
2022/08/29 04:34:42;;;;;;;5.13;2.43;;;17.00;58.60;;;;;;5055136;28;20452;-68
2022/08/29 04:37:09;;;;;;;5.13;2.30;;;17.00;58.60;;;;;;5054869;28;21004;-68
2022/08/29 04:39:36;;;;;;;5.97;2.80;;;16.90;58.60;;;;;;5055198;28;20875;-68
2022/08/29 04:42:02;;;;;;;5.70;3.07;;;16.90;58.90;;;;;;5054946;28;20479;-68
2022/08/29 04:44:29;;;;;;;3.90;2.60;;;16.80;59.00;;;;;;5055047;28;20453;-68
2022/08/29 04:46:56;;;;;;;4.07;2.70;;;16.70;59.00;;;;;;5055098;28;20451;-68
2022/08/29 04:49:23;;;;;;;4.80;2.40;;;16.70;59.10;;;;;;5054816;28;20432;-69
2022/08/29 04:51:53;;;;;;;3.53;2.77;;;16.70;59.20;;;;;;5054866;28;20449;-69
2022/08/29 04:54:20;;;;;;;3.77;2.47;;;16.70;59.20;;;;;;5054720;28;20441;-68
2022/08/29 04:56:47;;;;;;;3.30;2.90;;;16.60;59.10;;;;;;5054731;28;20481;-68
2022/08/29 04:59:15;;;;;;;4.00;2.50;;;16.60;59.60;;;;;;5054550;28;20542;-68
2022/08/29 05:01:42;;;;;;;3.90;3.43;;;16.60;59.30;;;;;;5055079;28;20452;-68
2022/08/29 05:04:09;;;;;;;5.63;2.50;;;16.60;59.30;;;;;;5054906;28;20455;-68
2022/08/29 05:06:36;;;;;;;3.07;2.53;;;16.70;59.40;;;;;;5054624;28;20452;-68
2022/08/29 05:09:04;;;;;;;5.43;2.47;;;16.70;59.40;;;;;;5054910;28;20441;-68
2022/08/29 05:11:33;;;;;;;4.40;2.80;;;16.70;59.60;;;;;;5054834;28;20448;-68
2022/08/29 05:14:01;;;;;;;6.37;2.67;;;16.70;59.40;;;;;;5054758;28;20529;-67
2022/08/29 05:16:29;;;;;;;5.93;3.50;;;16.70;59.60;;;;;;5054808;28;20573;-67
2022/08/29 05:18:58;;;;;;;3.20;2.70;;;16.60;59.60;;;;;;5054143;28;20956;-68
2022/08/29 05:21:26;;;;;;;2.77;2.50;;;16.60;59.40;;;;;;5054080;28;20503;-68
2022/08/29 05:23:55;;;;;;;8.13;2.40;;;16.50;59.40;;;;;;5054541;28;21046;-68
2022/08/29 05:26:23;;;;;;;3.07;2.33;;;16.50;59.50;;;;;;5054405;28;20449;-68
2022/08/29 05:28:50;;;;;;;5.53;2.60;;;16.50;59.50;;;;;;5054726;28;20444;-68
2022/08/29 05:31:17;;;;;;;3.63;2.80;;;16.50;59.60;;;;;;5054634;28;20514;-68
2022/08/29 05:33:44;;;;;;;4.37;2.97;;;16.60;60.00;;;;;;5053628;28;20474;-68
2022/08/29 05:36:11;;;;;;;3.50;2.87;;;16.60;60.00;;;;;;5054906;28;20867;-68
2022/08/29 05:38:38;;;;;;;7.90;3.57;;;16.60;60.30;;;;;;5054236;28;20459;-68
2022/08/29 05:41:06;;;;;;;3.50;2.80;;;16.60;60.80;;;;;;5054075;28;20461;-68
2022/08/29 05:43:35;;;;;;;6.47;2.90;;;16.60;61.00;;;;;;5054245;28;20480;-68
2022/08/29 05:46:03;;;;;;;4.53;2.93;;;16.70;61.50;;;;;;5055061;28;20439;-68
2022/08/29 05:48:30;;;;;;;5.73;3.33;;;16.70;61.90;;;;;;5053721;28;20980;-68
2022/08/29 05:50:58;;;;;;;5.10;3.13;;;16.80;62.00;;;;;;5054357;28;20449;-68
2022/08/29 05:53:26;;;;;;;6.73;3.30;;;16.80;62.20;;;;;;5054191;28;20475;-68
2022/08/29 05:55:54;;;;;;;4.90;2.60;;;16.80;62.90;;;;;;5054465;28;20492;-68
2022/08/29 05:58:20;;;;;;;5.37;2.83;;;16.80;63.70;;;;;;5054337;28;20820;-68
2022/08/29 06:00:49;;;;;;;8.60;3.50;;;16.80;64.20;;;;;;5054609;28;20458;-68
2022/08/29 06:03:16;;;;;;;4.13;3.73;;;16.90;64.50;;;;;;5054029;28;20471;-68
2022/08/29 06:05:43;;;;;;;6.73;3.37;;;16.90;64.60;;;;;;5054379;28;20922;-68
2022/08/29 06:08:10;;;;;;;5.73;3.37;;;17.00;65.00;;;;;;5053965;28;20527;-68
2022/08/29 06:10:40;;;;;;;6.80;3.57;;;17.10;65.40;;;;;;5054354;28;20453;-68
2022/08/29 06:13:07;;;;;;;6.63;3.67;;;17.20;66.10;;;;;;5054029;28;20468;-68
2022/08/29 06:15:34;;;;;;;6.27;3.50;;;17.20;65.90;;;;;;5054792;28;20457;-68
2022/08/29 06:18:02;;;;;;;5.97;4.17;;;17.30;66.20;;;;;;5054225;28;20833;-68
2022/08/29 06:20:29;;;;;;;5.67;4.10;;;17.40;66.50;;;;;;5054576;28;20452;-68
2022/08/29 06:22:56;;;;;;;7.20;3.53;;;17.40;66.40;;;;;;5054914;28;20559;-68
2022/08/29 06:25:23;;;;;;;13.67;4.10;;;17.50;66.80;;;;;;5054751;28;20443;-68
2022/08/29 06:27:53;;;;;;;6.57;4.57;;;17.60;66.90;;;;;;5055047;28;20441;-68
2022/08/29 06:30:20;;;;;;;10.87;4.10;;;17.70;67.40;;;;;;5056581;28;20444;-69
2022/08/29 06:32:47;;;;;;;11.43;4.33;;;17.70;67.50;;;;;;5058942;28;20833;-68
2022/08/29 06:35:15;;;;;;;6.97;4.67;;;17.80;68.20;;;;;;5060276;28;20418;-68
2022/08/29 06:37:42;;;;;;;6.93;4.63;;;17.80;68.20;;;;;;5060276;28;20899;-68
2022/08/29 06:40:10;;;;;;;13.17;4.60;;;17.80;68.60;;;;;;5060473;28;20454;-68
2022/08/29 06:42:37;;;;;;;8.90;4.70;;;17.90;68.60;;;;;;5060395;28;20477;-68
2022/08/29 06:45:05;;;;;;;7.93;4.60;;;17.90;68.70;;;;;;5059632;28;20475;-68
2022/08/29 06:47:32;;;;;;;6.67;4.83;;;17.90;68.60;;;;;;5058030;28;20440;-68
2022/08/29 06:49:59;;;;;;;5.83;5.03;;;18.00;68.70;;;;;;5058066;28;20457;-69
2022/08/29 06:52:27;;;;;;;5.07;4.20;;;18.10;68.70;;;;;;5056741;28;20480;-68
2022/08/29 06:54:54;;;;;;;6.33;4.67;;;18.20;68.60;;;;;;5056890;28;20426;-68
2022/08/29 06:57:21;;;;;;;4.93;3.57;;;18.30;68.30;;;;;;5056790;28;20587;-69
2022/08/29 06:59:48;;;;;;;6.00;4.10;;;18.50;67.90;;;;;;5057139;28;20796;-69
2022/08/29 07:02:14;;;;;;;4.80;3.27;;;18.50;67.60;;;;;;5056612;28;20472;-69
2022/08/29 07:04:41;;;;;;;11.43;4.20;;;18.70;67.10;;;;;;5056744;28;20457;-68
2022/08/29 07:07:08;;;;;;;7.00;4.53;;;18.80;66.60;;;;;;5057270;28;20429;-68
2022/08/29 07:09:37;;;;;;;5.40;4.17;;;19.00;66.50;;;;;;5056924;28;20449;-68
2022/08/29 07:12:04;;;;;;;8.73;4.30;;;19.10;66.00;;;;;;5056218;28;21020;-69
2022/08/29 07:14:31;;;;;;;6.73;4.27;;;19.10;65.40;;;;;;5056606;28;20484;-68
2022/08/29 07:16:59;;;;;;;16.97;5.23;;;19.20;65.20;;;;;;5056503;28;20462;-68
2022/08/29 07:19:26;;;;;;;6.67;4.03;;;19.30;65.10;;;;;;5056780;28;20499;-69
2022/08/29 07:21:53;;;;;;;7.70;4.00;;;19.40;64.70;;;;;;5056372;28;20471;-68
2022/08/29 07:24:20;;;;;;;8.83;4.00;;;19.60;64.40;;;;;;5056217;28;20950;-69
2022/08/29 07:26:49;;;;;;;6.23;3.33;;;19.70;64.20;;;;;;5056301;28;20462;-69
2022/08/29 07:29:19;;;;;;;7.53;5.20;;;19.90;63.30;;;;;;5055920;28;20453;-69
2022/08/29 07:31:46;;;;;;;6.70;3.90;;;20.10;62.70;;;;;;5055858;28;20824;-69
2022/08/29 07:34:14;;;;;;;7.30;3.97;;;20.30;62.30;;;;;;5056147;28;20468;-69
2022/08/29 07:36:41;;;;;;;7.43;3.40;;;20.50;61.90;;;;;;5056335;28;20478;-69
2022/08/29 07:39:09;;;;;;;7.83;3.37;;;20.70;60.50;;;;;;5056044;28;20450;-69
2022/08/29 07:41:37;;;;;;;7.50;3.43;;;21.00;59.20;;;;;;5056647;28;20449;-69
2022/08/29 07:44:06;;;;;;;6.30;3.63;;;21.20;58.00;;;;;;5055239;28;20989;-69
2022/08/29 07:46:32;;;;;;;3.83;3.40;;;21.50;57.30;;;;;;5055988;28;20434;-68
2022/08/29 07:49:00;;;;;;;4.90;3.23;;;21.90;56.60;;;;;;5055761;28;20457;-69
2022/08/29 07:51:27;;;;;;;5.53;3.33;;;22.20;55.90;;;;;;5055954;28;20442;-69
2022/08/29 07:53:55;;;;;;;4.73;3.03;;;22.50;55.40;;;;;;5055698;28;20461;-69
2022/08/29 07:56:24;;;;;;;9.20;2.67;;;22.70;54.80;;;;;;5055683;28;20480;-69
2022/08/29 07:58:51;;;;;;;8.47;2.97;;;22.90;54.20;;;;;;5055530;28;20450;-69
2022/08/29 08:01:20;;;;;;;7.33;2.90;;;23.10;53.40;;;;;;5055518;28;20450;-69
2022/08/29 08:03:47;;;;;;;6.57;2.57;;;23.30;53.20;;;;;;5055184;28;20858;-69
2022/08/29 08:06:14;;;;;;;6.20;2.70;;;23.60;52.50;;;;;;5055575;28;20548;-69
2022/08/29 08:08:41;;;;;;;7.87;2.67;;;23.90;51.80;;;;;;5055776;28;20460;-69
2022/08/29 08:11:09;;;;;;;5.70;2.40;;;24.10;50.50;;;;;;5055552;28;20453;-69
2022/08/29 08:13:37;;;;;;;6.87;3.07;;;24.50;49.80;;;;;;5055355;28;20461;-69
2022/08/29 08:16:05;;;;;;;6.37;2.67;;;24.80;49.20;;;;;;5055241;28;20453;-69
2022/08/29 08:18:35;;;;;;;4.47;2.60;;;25.10;48.40;;;;;;5055064;28;20956;-70
2022/08/29 08:21:02;;;;;;;5.87;2.30;;;25.30;47.50;;;;;;5055517;28;20503;-69
2022/08/29 08:23:29;;;;;;;3.90;2.40;;;25.60;46.70;;;;;;5054776;28;20478;-70
2022/08/29 08:25:56;;;;;;;7.43;2.97;;;25.70;45.90;;;;;;5055133;28;20461;-69
2022/08/29 08:28:23;;;;;;;4.33;2.27;;;25.80;45.80;;;;;;5055166;28;20442;-69
2022/08/29 08:30:50;;;;;;;4.83;1.93;;;25.80;45.30;;;;;;5055116;28;20434;-70
2022/08/29 08:33:17;;;;;;;9.93;2.93;;;25.90;45.00;;;;;;5054672;28;20910;-69
2022/08/29 08:35:46;;;;;;;4.57;2.47;;;25.90;44.30;;;;;;5054655;28;21001;-69
2022/08/29 08:38:13;;;;;;;6.83;2.90;;;26.10;44.10;;;;;;5054691;28;20485;-69
2022/08/29 08:40:43;;;;;;;4.23;2.03;;;26.20;43.90;;;;;;5055375;28;20471;-69
2022/08/29 08:43:14;;;;;;;6.13;2.50;;;26.50;43.30;;;;;;5054616;28;20565;-69
2022/08/29 08:45:42;;;;;;;5.43;2.27;;;26.70;42.20;;;;;;5054813;28;20434;-69
2022/08/29 08:48:14;;;;;;;7.43;2.37;;;26.80;41.80;;;;;;5054774;28;20466;-69
2022/08/29 08:50:43;;;;;;;3.63;2.30;;;26.90;41.80;;;;;;5055123;28;20438;-69
2022/08/29 08:53:18;;;;;;;7.37;2.63;;;27.10;41.50;;;;;;5054600;28;20470;-69
2022/08/29 08:55:48;;;;;;;3.87;2.20;;;27.10;41.00;;;;;;5053626;28;20508;-69
2022/08/29 08:58:28;;;;;;;6.77;3.00;;;27.10;40.80;;;;;;5054506;28;20511;-69
2022/08/29 09:01:00;;;;;;;5.70;2.70;;;27.00;40.80;;;;;;5054531;28;20427;-69
2022/08/29 09:04:09;;;;;;;5.90;3.17;;;26.90;41.20;;;;;;5053990;28;20508;-69
2022/08/29 09:06:59;;;;;;;5.30;2.10;;;26.80;41.40;;;;;;5054342;28;20499;-69
2022/08/29 09:09:38;;;;;;;3.33;2.00;;;26.80;41.30;;;;;;5055187;28;20842;-69
2022/08/29 09:12:20;;;;;;;6.10;2.20;;;26.90;41.30;;;;;;5054157;28;20480;-69
2022/08/29 09:14:57;;;;;;;6.60;2.40;;;27.10;41.10;;;;;;5054522;28;20434;-69
2022/08/29 09:17:31;;;;;;;7.80;2.43;;;27.30;40.60;;;;;;5053806;28;20986;-69
2022/08/29 09:20:00;;;;;;;6.87;2.40;;;27.50;40.20;;;;;;5054270;28;20444;-69
2022/08/29 09:22:30;;;;;;;6.47;2.47;;;27.60;39.60;;;;;;5053953;28;20473;-69
2022/08/29 09:25:02;;;;;;;7.30;2.70;;;27.70;39.60;;;;;;5053724;28;20457;-69
2022/08/29 09:27:33;;;;;;;10.40;3.20;;;27.90;39.30;;;;;;5054061;28;20434;-69
2022/08/29 09:30:05;;;;;;;6.90;2.33;;;28.20;38.50;;;;;;5053812;28;20811;-70
2022/08/29 09:32:32;;;;;;;3.80;2.10;;;28.40;38.20;;;;;;5053892;28;20473;-70
2022/08/29 09:34:59;;;;;;;6.57;2.40;;;28.50;37.90;;;;;;5053511;28;20972;-70
2022/08/29 09:37:30;;;;;;;11.60;3.33;;;28.70;37.20;;;;;;5053887;28;20470;-70
2022/08/29 09:40:03;;;;;;;6.53;2.70;;;28.90;36.80;;;;;;5053610;28;20448;-70
2022/08/29 09:42:34;;;;;;;6.10;2.53;;;28.90;36.50;;;;;;5053783;28;20561;-70
2022/08/29 09:45:07;;;;;;;5.20;2.27;;;29.10;36.50;;;;;;5053451;28;20434;-70
2022/08/29 09:47:34;;;;;;;6.23;2.33;;;29.20;36.30;;;;;;5053427;28;20936;-70
2022/08/29 09:50:10;;;;;;;4.57;2.80;;;29.20;35.90;;;;;;5054597;28;20445;-70
2022/08/29 09:52:39;;;;;;;5.20;2.57;;;29.20;35.70;;;;;;5053369;28;20461;-70
2022/08/29 09:55:36;;;;;;;3.60;2.27;;;29.20;35.40;;;;;;5053704;28;20445;-70
2022/08/29 09:58:05;;;;;;;5.80;2.53;;;29.00;35.20;;;;;;5018726;28;20489;-70
2022/08/29 10:00:35;;;;;;;6.40;2.70;;;29.10;35.80;;;;;;5053188;28;20458;-69
2022/08/29 10:03:05;;;;;;;9.17;2.93;;;29.40;35.40;;;;;;5053561;28;21002;-69
2022/08/29 10:05:41;;;;;;;6.40;2.70;;;29.60;35.20;;;;;;5053325;28;20437;-69
2022/08/29 10:08:25;;;;;;;15.33;3.30;;;29.90;34.80;;;;;;5053456;28;20438;-69
2022/08/29 10:10:56;;;;;;;5.03;2.50;;;30.20;34.20;;;;;;5053031;28;20811;-70
2022/08/29 10:13:25;;;;;;;11.23;3.63;;;30.40;33.50;;;;;;5053459;28;20470;-67
2022/08/29 10:15:58;;;;;;;79.33;11.10;;;30.60;33.10;;;;;;5053351;28;20457;-69
2022/08/29 10:18:36;;;;;;;20.33;4.00;;;31.10;33.00;;;;;;5052985;28;21076;-70
2022/08/29 10:21:15;;;;;;;28.07;5.80;;;31.40;32.00;;;;;;5053578;28;20433;-71
2022/08/29 10:24:03;;;;;;;7.70;2.97;;;31.50;31.00;;;;;;5053033;28;20841;-69
2022/08/29 10:26:39;;;;;;;4.50;2.13;;;31.80;30.90;;;;;;5053281;28;20441;-70
2022/08/29 10:29:14;;;;;;;6.13;3.00;;;32.20;30.50;;;;;;5052866;28;20909;-68
2022/08/29 10:31:48;;;;;;;4.80;2.40;;;32.80;29.60;;;;;;5053367;28;20429;-69
2022/08/29 10:34:27;;;;;;;4.80;2.50;;;33.40;28.20;;;;;;5053890;28;20437;-68
2022/08/29 10:37:00;;;;;;;21.03;5.23;;;34.10;27.50;;;;;;5053204;28;20437;-68
2022/08/29 10:39:38;;;;;;;8.50;2.90;;;34.80;26.90;;;;;;5053317;28;20433;-69
2022/08/29 10:42:11;;;;;;;15.77;3.67;;;35.30;25.70;;;;;;5053095;28;20540;-70
2022/08/29 10:44:49;;;;;;;10.57;3.30;;;35.70;25.10;;;;;;5053457;28;20436;-69
2022/08/29 10:47:25;;;;;;;6.17;2.83;;;36.00;25.00;;;;;;5053357;28;20425;-69
2022/08/29 10:50:04;;;;;;;11.50;2.87;;;36.20;24.80;;;;;;5053430;28;20469;-70
2022/08/29 10:52:35;;;;;;;7.77;3.23;;;36.10;24.70;;;;;;5052998;28;20465;-69
2022/08/29 10:55:12;;;;;;;9.37;3.30;;;35.70;25.00;;;;;;5053042;28;20899;-69
2022/08/29 10:57:52;;;;;;;31.57;6.47;;;35.30;25.80;;;;;;5053033;28;20468;-69
2022/08/29 11:00:23;;;;;;;16.97;3.80;;;35.10;26.10;;;;;;5053155;28;20432;-69
2022/08/29 11:03:01;;;;;;;16.03;4.30;;;35.10;26.10;;;;;;5052742;28;21044;-69
2022/08/29 11:05:35;;;;;;;9.97;3.30;;;35.60;25.30;;;;;;5053165;28;20829;-69
2022/08/29 11:08:07;;;;;;;40.20;7.23;;;36.00;24.80;;;;;;5053204;28;20425;-69
2022/08/29 11:10:39;;;;;;;8.93;2.93;;;36.30;24.60;;;;;;5053132;28;20436;-69
2022/08/29 11:13:12;;;;;;;11.70;3.30;;;36.80;24.10;;;;;;5052470;28;20511;-69
2022/08/29 11:15:43;;;;;;;6.60;3.00;;;37.10;23.20;;;;;;5053140;28;20448;-69
2022/08/29 11:18:16;;;;;;;6.53;3.00;;;36.70;22.90;;;;;;5054069;28;20469;-69
2022/08/29 11:20:48;;;;;;;10.43;3.80;;;36.20;23.70;;;;;;5056743;28;20793;-69
2022/08/29 11:23:34;;;;;;;14.03;4.40;;;35.90;24.50;;;;;;5056164;28;20993;-69
2022/08/29 11:26:07;;;;;;;8.33;3.57;;;35.70;24.90;;;;;;5056531;28;20440;-69
2022/08/29 11:28:43;;;;;;;29.47;5.00;;;35.60;25.20;;;;;;5056726;28;20469;-70
2022/08/29 11:31:17;;;;;;;13.13;3.90;;;35.80;24.90;;;;;;5056550;28;20441;-69
2022/08/29 11:33:51;;;;;;;26.93;4.93;;;36.20;24.70;;;;;;5056364;28;20473;-70
2022/08/29 11:36:45;;;;;;;9.13;3.00;;;36.60;24.10;;;;;;5056289;28;20429;-70
2022/08/29 11:39:45;;;;;;;6.17;3.50;;;37.40;24.20;;;;;;5056797;28;20850;-70
2022/08/29 11:42:15;;;;;;;4.67;2.77;;;37.80;22.90;;;;;;5056110;28;20227;-70
2022/08/29 11:44:48;;;;;;;5.73;2.93;;;37.60;22.70;;;;;;5056158;28;20230;-70
2022/08/29 11:47:38;;;;;;;7.23;2.40;;;37.20;23.10;;;;;;5056332;28;20198;-70
2022/08/29 11:50:22;;;;;;;9.23;3.40;;;36.60;23.60;;;;;;5056466;28;20241;-70
2022/08/29 11:52:51;;;;;;;15.13;3.30;;;36.30;24.10;;;;;;5054681;28;20476;-69
2022/08/29 11:55:32;;;;;;;9.33;2.80;;;36.30;23.90;;;;;;5056015;28;20449;-69
2022/08/29 11:58:02;;;;;;;4.37;2.40;;;36.50;24.10;;;;;;5056112;28;20472;-69
2022/08/29 12:00:47;;;;;;;7.00;2.67;;;37.00;23.80;;;;;;5055661;28;20187;-69
2022/08/29 12:03:45;;;;;;;11.10;2.70;;;37.90;22.60;;;;;;5056129;28;20230;-69
2022/08/29 12:06:19;;;;;;;4.70;2.92;;;38.90;21.70;;;;;;4994246;28;20193;-70
2022/08/29 12:08:53;;;;;;;8.35;2.90;;;39.50;20.70;;;;;;5044668;28;20202;-69
2022/08/29 12:11:20;;;;;;;4.53;2.38;;;40.10;19.80;;;;;;5055600;28;20705;-69
2022/08/29 12:14:01;;;;;;;4.18;2.67;;;40.40;19.40;;;;;;5055576;28;20229;-69
2022/08/29 12:16:47;;;;;;;5.30;3.05;;;40.90;19.40;;;;;;5055394;28;20202;-69
2022/08/29 12:19:45;;;;;;;5.03;2.60;;;41.50;17.60;;;;;;5055510;28;20679;-69
2022/08/29 12:22:47;;;;;;;5.32;2.75;;;41.90;17.50;;;;;;5055889;28;20222;-69
2022/08/29 12:25:32;;;;;;;3.67;2.78;;;42.20;16.80;;;;;;5055605;28;20701;-70
2022/08/29 12:28:03;;;;;;;3.95;2.50;;;42.30;17.10;;;;;;5055460;28;20237;-70
2022/08/29 12:30:34;;;;;;;4.40;2.30;;;42.40;17.30;;;;;;5054970;28;20647;-70
2022/08/29 12:33:12;;;;;;;5.78;2.95;;;42.40;16.80;;;;;;5055512;28;20251;-70
2022/08/29 12:36:06;;;;;;;8.18;3.25;;;42.00;17.10;;;;;;5055327;28;20652;-70
2022/08/29 12:38:48;;;;;;;6.25;2.90;;;41.20;17.30;;;;;;5056199;28;20264;-70
2022/08/29 12:41:33;;;;;;;5.53;2.58;;;40.30;18.30;;;;;;5055859;28;20638;-70
2022/08/29 12:44:02;;;;;;;3.67;2.22;;;39.60;18.80;;;;;;5056079;28;20272;-69
2022/08/29 12:46:32;;;;;;;10.07;2.95;;;39.60;19.50;;;;;;5056128;28;20203;-69
2022/08/29 12:49:08;;;;;;;9.05;2.65;;;40.00;19.10;;;;;;5055833;28;20266;-70
2022/08/29 12:51:37;;;;;;;17.10;3.15;;;40.80;18.60;;;;;;5055084;28;20194;-70
2022/08/29 12:54:05;;;;;;;4.50;2.65;;;41.70;18.10;;;;;;5054909;28;20222;-70
2022/08/29 12:56:33;;;;;;;3.08;2.28;;;42.60;17.40;;;;;;5054619;28;20210;-70
2022/08/29 12:59:01;;;;;;;4.68;2.28;;;43.40;16.80;;;;;;5054972;28;20230;-70
2022/08/29 13:01:31;;;;;;;2.95;2.28;;;44.10;16.20;;;;;;5054836;28;20211;-70
2022/08/29 13:04:05;;;;;;;3.70;2.15;;;44.70;15.40;;;;;;5054999;28;20223;-71